TAF Text Data
IDs:
Format:
Raw Decoded Include METAR

Data at: 1737 UTC 20 May 2022

WBSB 201700Z 15003KT 9999 -RA FEW004 BKN150 25/25 Q1010 NOSIG

TAF WBSB 201700Z 2018/2200 18005KT 9999 FEW004 FEW015CB
  BECMG 2103/2105 26007KT FEW016 FEW017CB